Terminal Aerodrome Forecast
Issued by NWS

Home | Current Version | Previous Version | Text Only | Print | Product List | Glossary On
Versions: 1 2 3 4 5 6 7 8 9 10 11 12 13 14 15 16
963
FTUS44 KCRP 261133
TAFLRD
TAF
KLRD 261133Z 2612/2712 02010KT P6SM BKN015 OVC025
     FM261900 13007KT P6SM SCT035 BKN040=

USA.gov is the U.S. government's official web portal to all federal, state and local government web resources and services.